createdAt,value
2022-08-12T00:00:31.145Z,3.10
2022-08-12T00:03:13.576Z,3.40
2022-08-12T00:06:05.089Z,3.40
2022-08-12T00:08:50.463Z,2.90
2022-08-12T00:11:33.255Z,3.90
2022-08-12T00:14:16.110Z,3.80
2022-08-12T00:16:59.439Z,3.90
2022-08-12T00:19:43.810Z,4.80
2022-08-12T00:22:26.518Z,5.40
2022-08-12T00:25:15.558Z,5.20
2022-08-12T00:27:58.877Z,4.70
2022-08-12T00:30:41.686Z,4.80
2022-08-12T00:33:26.947Z,4.90
2022-08-12T00:36:35.184Z,4.80
2022-08-12T00:39:19.292Z,4.30
2022-08-12T00:42:03.739Z,4.60
2022-08-12T00:44:30.611Z,4.50
2022-08-12T00:47:01.854Z,4.50
2022-08-12T00:49:31.348Z,4.10
2022-08-12T00:52:09.989Z,4.10
2022-08-12T00:54:44.471Z,4.30
2022-08-12T00:57:13.421Z,4.00
2022-08-12T00:59:49.058Z,4.00
2022-08-12T01:02:24.526Z,3.80
2022-08-12T01:05:12.244Z,3.90
2022-08-12T01:07:57.575Z,3.60
2022-08-12T01:10:43.512Z,4.20
2022-08-12T01:13:19.711Z,3.30
2022-08-12T01:15:51.461Z,3.40
2022-08-12T01:18:22.185Z,3.40
2022-08-12T01:21:04.206Z,3.50
2022-08-12T01:23:50.505Z,3.70
2022-08-12T01:26:21.607Z,3.50
2022-08-12T01:28:51.303Z,4.10
2022-08-12T01:31:19.648Z,3.30
2022-08-12T01:33:59.861Z,3.70
2022-08-12T01:36:28.964Z,3.30
2022-08-12T01:38:59.442Z,3.50
2022-08-12T01:41:31.406Z,3.50
2022-08-12T01:44:01.907Z,4.00
2022-08-12T01:46:44.391Z,4.00
2022-08-12T01:49:27.028Z,3.80
2022-08-12T01:52:21.246Z,3.40
2022-08-12T01:54:51.574Z,3.40
2022-08-12T01:57:59.398Z,3.40
2022-08-12T02:00:47.665Z,3.50
2022-08-12T02:03:31.544Z,3.60
2022-08-12T02:06:25.771Z,3.60
2022-08-12T02:09:14.155Z,3.50
2022-08-12T02:11:53.728Z,3.50
2022-08-12T02:14:52.788Z,3.40
2022-08-12T02:17:55.951Z,3.30
2022-08-12T02:20:35.350Z,3.80
2022-08-12T02:23:19.640Z,4.20
2022-08-12T02:25:47.826Z,4.30
2022-08-12T02:28:15.340Z,4.80
2022-08-12T02:30:42.762Z,4.50
2022-08-12T02:33:10.983Z,4.10
2022-08-12T02:35:39.804Z,4.70
2022-08-12T02:38:11.944Z,4.80
2022-08-12T02:40:44.799Z,5.10
2022-08-12T02:43:24.569Z,5.30
2022-08-12T02:46:00.608Z,5.00
2022-08-12T02:48:34.222Z,4.90
2022-08-12T02:51:09.410Z,4.90
2022-08-12T02:53:39.007Z,5.10
2022-08-12T02:56:07.101Z,4.80
2022-08-12T02:58:36.071Z,4.80
2022-08-12T03:01:10.488Z,4.70
2022-08-12T03:03:39.235Z,4.50
2022-08-12T03:06:09.123Z,4.80
2022-08-12T03:08:43.505Z,4.60
2022-08-12T03:11:23.222Z,4.10
2022-08-12T03:13:58.266Z,4.50
2022-08-12T03:16:28.235Z,5.10
2022-08-12T03:18:56.025Z,4.90
2022-08-12T03:21:52.843Z,4.80
2022-08-12T03:24:17.375Z,4.60
2022-08-12T03:26:48.239Z,4.00
2022-08-12T03:29:16.726Z,4.30
2022-08-12T03:31:44.215Z,3.80
2022-08-12T03:34:12.833Z,4.10
2022-08-12T03:36:42.071Z,4.00
2022-08-12T03:39:19.310Z,4.10
2022-08-12T03:42:17.587Z,4.30
2022-08-12T03:45:17.930Z,3.70
2022-08-12T03:48:18.685Z,3.40
2022-08-12T03:51:03.968Z,3.70
2022-08-12T03:53:47.239Z,3.10
2022-08-12T03:56:30.871Z,3.30
2022-08-12T03:59:15.909Z,3.50
2022-08-12T04:01:42.872Z,3.60
2022-08-12T04:04:10.738Z,3.90
2022-08-12T04:06:45.335Z,3.60
2022-08-12T04:09:14.573Z,3.80
2022-08-12T04:12:00.944Z,3.50
2022-08-12T04:14:28.064Z,3.90
2022-08-12T04:16:57.227Z,4.10
2022-08-12T04:19:26.489Z,4.20
2022-08-12T04:22:02.031Z,4.00
2022-08-12T04:24:36.305Z,4.50
2022-08-12T04:27:08.720Z,4.40
2022-08-12T04:30:21.388Z,4.20
2022-08-12T04:32:25.966Z,4.20
2022-08-12T04:34:53.913Z,4.40
2022-08-12T04:37:20.991Z,4.70
2022-08-12T04:39:48.731Z,4.10
2022-08-12T04:42:16.331Z,4.50
2022-08-12T04:44:44.614Z,4.00
2022-08-12T04:47:14.378Z,4.00
2022-08-12T04:49:44.732Z,4.80
2022-08-12T04:52:12.601Z,4.80
2022-08-12T04:54:39.559Z,4.90
2022-08-12T04:57:09.944Z,5.60
2022-08-12T04:59:46.818Z,5.20
2022-08-12T05:02:21.534Z,5.20
2022-08-12T05:07:17.375Z,5.40
2022-08-12T05:10:00.504Z,5.50
2022-08-12T05:12:36.823Z,5.50
2022-08-12T05:15:16.875Z,5.00
2022-08-12T05:17:52.880Z,5.00
2022-08-12T05:20:22.311Z,5.00
2022-08-12T05:22:56.912Z,4.70
2022-08-12T05:25:24.466Z,4.80
2022-08-12T05:27:55.469Z,5.00
2022-08-12T05:30:28.165Z,5.00
2022-08-12T05:32:59.815Z,5.00
2022-08-12T05:35:28.368Z,5.40
2022-08-12T05:38:15.253Z,5.70
2022-08-12T05:40:42.280Z,5.20
2022-08-12T05:43:09.247Z,5.10
2022-08-12T05:45:37.508Z,5.10
2022-08-12T05:48:07.257Z,4.90
2022-08-12T05:50:36.688Z,4.90
2022-08-12T05:53:04.167Z,5.70
2022-08-12T05:55:31.797Z,5.00
2022-08-12T05:57:59.393Z,5.00
2022-08-12T06:00:26.883Z,5.20
2022-08-12T06:02:57.248Z,4.90
2022-08-12T06:05:24.174Z,5.10
2022-08-12T06:08:01.596Z,5.20
2022-08-12T06:10:33.020Z,5.10
2022-08-12T06:13:02.698Z,4.60
2022-08-12T06:15:30.491Z,5.90
2022-08-12T06:18:14.062Z,5.40
2022-08-12T06:20:46.745Z,5.20
2022-08-12T06:23:15.511Z,6.10
2022-08-12T06:25:43.697Z,5.70
2022-08-12T06:28:17.843Z,5.80
2022-08-12T06:30:57.373Z,6.60
2022-08-12T06:33:55.452Z,5.90
2022-08-12T06:36:23.758Z,6.30
2022-08-12T06:38:51.223Z,6.00
2022-08-12T06:41:34.136Z,5.00
2022-08-12T06:44:05.913Z,5.60
2022-08-12T06:46:37.132Z,5.40
2022-08-12T06:49:04.517Z,5.20
2022-08-12T06:51:32.694Z,5.20
2022-08-12T06:54:00.841Z,5.20
2022-08-12T06:56:59.674Z,4.90
2022-08-12T06:59:15.965Z,5.60
2022-08-12T07:01:49.603Z,5.40
2022-08-12T07:04:36.174Z,5.30
2022-08-12T07:07:05.665Z,5.30
2022-08-12T07:10:01.419Z,5.00
2022-08-12T07:12:20.119Z,5.40
2022-08-12T07:14:51.798Z,4.90
2022-08-12T07:17:18.910Z,5.00
2022-08-12T07:19:48.770Z,4.90
2022-08-12T07:22:17.026Z,4.50
2022-08-12T07:25:04.105Z,4.60
2022-08-12T07:27:31.258Z,4.50
2022-08-12T07:30:04.576Z,4.50
2022-08-12T07:32:32.181Z,4.20
2022-08-12T07:34:58.966Z,4.30
2022-08-12T07:37:25.745Z,3.70
2022-08-12T07:40:00.449Z,4.30
2022-08-12T07:42:29.694Z,4.20
2022-08-12T07:44:56.887Z,4.00
2022-08-12T07:47:24.752Z,3.90
2022-08-12T07:50:04.325Z,3.40
2022-08-12T07:52:35.715Z,3.80
2022-08-12T07:55:04.402Z,3.90
2022-08-12T07:57:32.732Z,3.60
2022-08-12T08:00:06.108Z,3.40
2022-08-12T08:02:37.643Z,3.00
2022-08-12T08:05:05.247Z,2.90
2022-08-12T08:07:32.236Z,2.90
2022-08-12T08:10:00.726Z,2.70
2022-08-12T08:12:44.980Z,2.80
2022-08-12T08:15:12.184Z,2.80
2022-08-12T08:17:39.255Z,2.30
2022-08-12T08:20:10.315Z,2.20
2022-08-12T08:22:42.592Z,2.30
2022-08-12T08:25:34.484Z,2.10
2022-08-12T08:28:01.162Z,1.90
2022-08-12T08:30:29.959Z,1.70
2022-08-12T08:32:57.231Z,1.90
2022-08-12T08:35:26.076Z,1.60
2022-08-12T08:38:32.087Z,1.70
2022-08-12T08:42:16.029Z,2.10
2022-08-12T08:44:06.744Z,1.60
2022-08-12T08:46:38.293Z,1.90
2022-08-12T08:49:06.290Z,1.70
2022-08-12T08:51:33.369Z,1.60
2022-08-12T08:54:00.204Z,2.00
2022-08-12T08:56:29.272Z,1.30
2022-08-12T08:58:57.734Z,1.40
2022-08-12T09:01:26.032Z,1.70
2022-08-12T09:05:10.073Z,1.80
2022-08-12T09:06:53.468Z,1.50
2022-08-12T09:09:21.379Z,1.60
2022-08-12T09:12:11.110Z,1.60
2022-08-12T09:17:42.103Z,1.60
2022-08-12T09:20:15.975Z,1.70
2022-08-12T09:22:49.209Z,1.70
2022-08-12T09:28:05.993Z,1.70
2022-08-12T09:30:42.292Z,1.70
2022-08-12T09:33:19.317Z,1.80
2022-08-12T09:36:04.536Z,2.10
2022-08-12T09:38:35.238Z,1.80
2022-08-12T09:42:09.073Z,1.90
2022-08-12T09:44:05.610Z,1.90
2022-08-12T09:46:34.568Z,1.80
2022-08-12T09:49:04.195Z,2.00
2022-08-12T09:51:43.871Z,2.00
2022-08-12T09:54:33.149Z,1.80
2022-08-12T09:57:03.624Z,1.80
2022-08-12T10:00:15.193Z,2.10
2022-08-12T10:02:44.301Z,2.20
2022-08-12T10:05:20.251Z,2.00
2022-08-12T10:07:47.661Z,1.80
2022-08-12T10:10:23.877Z,1.90
2022-08-12T10:13:34.920Z,1.90
2022-08-12T10:16:00.769Z,1.80
2022-08-12T10:18:32.457Z,2.00
2022-08-12T10:20:59.454Z,2.00
2022-08-12T10:23:40.124Z,2.10
2022-08-12T10:26:38.619Z,2.00
2022-08-12T10:30:03.513Z,2.10
2022-08-12T10:32:20.870Z,2.10
2022-08-12T10:34:53.376Z,2.50
2022-08-12T10:38:34.603Z,2.30
2022-08-12T10:40:18.938Z,2.60
2022-08-12T10:43:02.851Z,2.70
2022-08-12T10:45:31.384Z,2.40
2022-08-12T10:48:19.134Z,2.30
2022-08-12T10:50:56.732Z,2.30
2022-08-12T10:53:45.558Z,2.10
2022-08-12T10:56:15.597Z,2.20
2022-08-12T10:58:45.948Z,2.50
2022-08-12T11:01:50.008Z,1.90
2022-08-12T11:04:20.101Z,2.30
2022-08-12T11:07:10.017Z,3.20
2022-08-12T11:09:59.773Z,2.50
2022-08-12T11:12:56.633Z,2.30
2022-08-12T11:15:32.994Z,2.90
2022-08-12T11:18:18.575Z,2.60
2022-08-12T11:20:48.141Z,2.70
2022-08-12T11:23:25.126Z,2.70
2022-08-12T11:26:05.492Z,2.80
2022-08-12T11:28:36.692Z,2.70
2022-08-12T11:31:12.317Z,2.70
2022-08-12T11:34:06.044Z,2.90
2022-08-12T11:36:30.621Z,2.10
2022-08-12T11:38:58.110Z,2.00
2022-08-12T11:41:31.878Z,1.70
2022-08-12T11:44:30.682Z,2.50
2022-08-12T11:46:50.910Z,2.20
2022-08-12T11:49:30.540Z,2.60
2022-08-12T11:51:58.017Z,1.80
2022-08-12T11:54:25.032Z,2.10
2022-08-12T11:56:52.344Z,2.00
2022-08-12T12:02:17.578Z,2.10
2022-08-12T12:04:46.203Z,1.90
2022-08-12T12:07:33.701Z,2.00
2022-08-12T12:10:11.223Z,1.80
2022-08-12T12:12:38.621Z,2.20
2022-08-12T12:15:09.828Z,1.60
2022-08-12T12:17:39.069Z,1.90
2022-08-12T12:20:09.736Z,1.90
2022-08-12T12:22:38.557Z,2.10
2022-08-12T12:25:12.731Z,2.20
2022-08-12T12:28:04.891Z,1.80
2022-08-12T12:30:33.004Z,1.80
2022-08-12T12:32:59.931Z,1.80
2022-08-12T12:36:06.243Z,1.70
2022-08-12T12:38:15.145Z,1.70
2022-08-12T12:40:44.572Z,1.30
2022-08-12T12:43:13.847Z,1.50
2022-08-12T12:45:45.803Z,1.30
2022-08-12T12:48:15.493Z,1.60
2022-08-12T12:51:12.245Z,1.90
2022-08-12T12:54:08.036Z,1.60
2022-08-12T12:56:34.673Z,2.00
2022-08-12T12:59:03.865Z,1.60
2022-08-12T13:01:38.321Z,1.70
2022-08-12T13:04:12.230Z,2.50
2022-08-12T13:06:42.149Z,1.50
2022-08-12T13:09:13.282Z,1.60
2022-08-12T13:11:42.201Z,1.80
2022-08-12T13:14:28.234Z,1.30
2022-08-12T13:16:57.527Z,1.40
2022-08-12T13:19:37.416Z,1.40
2022-08-12T13:22:23.858Z,1.70
2022-08-12T13:24:56.894Z,1.60
2022-08-12T13:27:35.348Z,1.40
2022-08-12T13:30:11.099Z,1.40
2022-08-12T13:32:42.674Z,1.50
2022-08-12T13:35:19.333Z,1.70
2022-08-12T13:37:59.375Z,1.60
2022-08-12T13:40:32.346Z,1.50
2022-08-12T13:43:01.596Z,1.40
2022-08-12T13:45:30.973Z,1.60
2022-08-12T13:48:03.868Z,1.90
2022-08-12T13:50:36.469Z,1.80
2022-08-12T13:53:23.985Z,1.80
2022-08-12T13:56:01.539Z,1.80
2022-08-12T13:58:32.824Z,1.80
2022-08-12T14:01:05.713Z,1.50
2022-08-12T14:03:50.609Z,1.70
2022-08-12T14:06:19.715Z,1.50
2022-08-12T14:08:49.918Z,1.80
2022-08-12T14:11:19.435Z,1.90
2022-08-12T14:14:03.742Z,1.90
2022-08-12T14:16:48.569Z,1.40
2022-08-12T14:19:22.447Z,3.20
2022-08-12T14:21:59.331Z,1.50
2022-08-12T14:24:31.635Z,1.70
2022-08-12T14:27:01.801Z,1.90
2022-08-12T14:29:56.280Z,1.70
2022-08-12T14:32:18.440Z,2.00
2022-08-12T14:34:49.196Z,1.90
2022-08-12T14:37:57.511Z,1.90
2022-08-12T14:40:04.321Z,2.00
2022-08-12T14:42:31.192Z,1.90
2022-08-12T14:45:01.187Z,2.00
2022-08-12T14:47:34.941Z,1.90
2022-08-12T14:50:58.402Z,2.00
2022-08-12T14:58:31.773Z,2.10
2022-08-12T15:01:14.956Z,2.30
2022-08-12T15:03:53.046Z,2.20
2022-08-12T15:06:43.693Z,2.20
2022-08-12T15:09:15.961Z,2.40
2022-08-12T15:11:55.725Z,2.00
2022-08-12T15:14:30.664Z,2.30
2022-08-12T15:17:00.657Z,2.00
2022-08-12T15:20:33.220Z,2.20
2022-08-12T15:22:37.520Z,2.20
2022-08-12T15:25:07.560Z,2.10
2022-08-12T15:28:03.987Z,1.90
2022-08-12T15:30:31.336Z,2.20
2022-08-12T15:32:59.118Z,2.10
2022-08-12T15:35:31.472Z,2.10
2022-08-12T15:38:12.046Z,2.30
2022-08-12T15:40:48.274Z,2.60
2022-08-12T15:43:51.355Z,2.40
2022-08-12T15:46:06.429Z,2.30
2022-08-12T15:48:34.169Z,2.10
2022-08-12T15:51:02.856Z,2.80
2022-08-12T15:53:46.832Z,2.80
2022-08-12T15:56:29.639Z,2.40
2022-08-12T15:58:59.321Z,2.30
2022-08-12T16:01:34.953Z,2.80
2022-08-12T16:04:05.338Z,3.00
2022-08-12T16:07:00.577Z,3.70
2022-08-12T16:09:31.813Z,2.90
2022-08-12T16:12:12.329Z,2.80
2022-08-12T16:14:41.564Z,2.90
2022-08-12T16:17:14.850Z,3.00
2022-08-12T16:20:03.489Z,3.10
2022-08-12T16:22:29.706Z,3.20
2022-08-12T16:24:57.236Z,3.00
2022-08-12T16:27:25.723Z,3.10
2022-08-12T16:29:57.700Z,2.60
2022-08-12T16:32:31.176Z,3.20
2022-08-12T16:35:00.911Z,2.80
2022-08-12T16:38:05.036Z,2.90
2022-08-12T16:40:18.831Z,3.20
2022-08-12T16:42:53.603Z,2.60
2022-08-12T16:46:04.942Z,3.00
2022-08-12T16:48:34.676Z,3.30
2022-08-12T16:51:08.221Z,3.30
2022-08-12T16:53:43.842Z,3.20
2022-08-12T16:56:15.437Z,3.90
2022-08-12T16:58:43.396Z,3.60
2022-08-12T17:01:14.059Z,3.70
2022-08-12T17:03:52.024Z,4.40
2022-08-12T17:06:27.682Z,4.20
2022-08-12T17:09:08.621Z,4.50
2022-08-12T17:11:49.258Z,3.70
2022-08-12T17:14:23.025Z,4.30
2022-08-12T17:20:12.181Z,4.40
2022-08-12T17:22:09.850Z,4.30
2022-08-12T17:24:43.803Z,4.70
2022-08-12T17:27:16.052Z,5.40
2022-08-12T17:30:00.736Z,4.70
2022-08-12T17:32:31.454Z,4.70
2022-08-12T17:35:16.058Z,4.60
2022-08-12T17:37:44.809Z,4.50
2022-08-12T17:40:20.811Z,5.20
2022-08-12T17:43:02.266Z,5.10
2022-08-12T17:45:31.263Z,4.80
2022-08-12T17:48:05.166Z,5.20
2022-08-12T17:50:38.033Z,5.30
2022-08-12T17:53:10.164Z,5.60
2022-08-12T17:55:47.859Z,5.60
2022-08-12T17:58:35.617Z,5.50
2022-08-12T18:01:11.237Z,5.30
2022-08-12T18:04:06.951Z,5.30
2022-08-12T18:06:28.429Z,5.20
2022-08-12T18:08:58.873Z,4.90
2022-08-12T18:12:03.804Z,5.40
2022-08-12T18:14:30.571Z,4.80
2022-08-12T18:17:00.825Z,4.80
2022-08-12T18:19:34.276Z,4.90
2022-08-12T18:22:21.983Z,5.60
2022-08-12T18:25:03.787Z,5.40
2022-08-12T18:27:44.667Z,5.50
2022-08-12T18:30:20.716Z,5.70
2022-08-12T18:33:03.596Z,5.60
2022-08-12T18:35:47.719Z,6.20
2022-08-12T18:38:22.728Z,6.30
2022-08-12T18:41:09.636Z,6.10
2022-08-12T18:43:58.872Z,6.10
2022-08-12T18:46:32.426Z,5.70
2022-08-12T18:49:17.077Z,5.70
2022-08-12T18:51:55.115Z,6.10
2022-08-12T18:54:26.948Z,6.10
2022-08-12T18:56:57.779Z,6.30
2022-08-12T18:59:59.970Z,6.30
2022-08-12T19:02:21.216Z,6.40
2022-08-12T19:04:53.239Z,6.40
2022-08-12T19:07:24.117Z,6.80
2022-08-12T19:09:58.633Z,6.00
2022-08-12T19:12:42.839Z,6.10
2022-08-12T19:15:25.800Z,6.30
2022-08-12T19:18:00.558Z,6.50
2022-08-12T19:20:30.088Z,6.40
2022-08-12T19:23:02.631Z,7.00
2022-08-12T19:26:00.920Z,7.00
2022-08-12T19:28:30.372Z,6.20
2022-08-12T19:31:44.724Z,6.00
2022-08-12T19:34:47.023Z,5.80
2022-08-12T19:37:16.760Z,6.50
2022-08-12T19:40:09.104Z,6.60
2022-08-12T19:42:33.836Z,6.20
2022-08-12T19:45:05.139Z,6.80
2022-08-12T19:47:39.284Z,6.60
2022-08-12T19:50:11.384Z,6.30
2022-08-12T19:52:40.861Z,6.20
2022-08-12T19:55:11.534Z,5.90
2022-08-12T19:58:02.621Z,6.20
2022-08-12T20:00:32.309Z,6.30
2022-08-12T20:03:04.775Z,6.60
2022-08-12T20:06:07.057Z,6.50
2022-08-12T20:08:32.930Z,6.40
2022-08-12T20:12:12.294Z,7.60
2022-08-12T20:14:00.625Z,7.10
2022-08-12T20:16:53.039Z,6.60
2022-08-12T20:19:24.768Z,6.40
2022-08-12T20:22:14.560Z,6.50
2022-08-12T20:24:42.996Z,7.20
2022-08-12T20:27:28.771Z,7.20
2022-08-12T20:29:57.187Z,7.60
2022-08-12T20:32:29.817Z,7.10
2022-08-12T20:35:13.322Z,7.30
2022-08-12T20:38:06.371Z,6.90
2022-08-12T20:40:38.097Z,6.20
2022-08-12T20:43:06.446Z,6.70
2022-08-12T20:45:44.935Z,6.90
2022-08-12T20:48:18.294Z,7.60
2022-08-12T20:50:53.385Z,7.80
2022-08-12T20:53:32.937Z,7.80
2022-08-12T20:56:30.769Z,8.40
2022-08-12T20:59:01.268Z,7.70
2022-08-12T21:01:46.079Z,6.90
2022-08-12T21:04:47.060Z,6.70
2022-08-12T21:07:23.464Z,7.00
2022-08-12T21:09:52.008Z,7.60
2022-08-12T21:12:27.718Z,7.60
2022-08-12T21:15:17.006Z,7.80
2022-08-12T21:18:15.541Z,7.70
2022-08-12T21:20:52.323Z,7.10
2022-08-12T21:23:22.895Z,7.00
2022-08-12T21:25:54.875Z,6.80
2022-08-12T21:28:22.493Z,7.50
2022-08-12T21:32:35.119Z,7.50
2022-08-12T21:33:58.483Z,6.70
2022-08-12T21:39:37.559Z,7.20
2022-08-12T21:42:07.097Z,7.40
2022-08-12T21:45:48.282Z,6.90
2022-08-12T21:47:24.221Z,6.60
2022-08-12T21:50:04.253Z,7.00
2022-08-12T21:52:37.009Z,7.70
2022-08-12T21:55:08.067Z,7.50
2022-08-12T21:57:51.249Z,7.70
2022-08-12T22:00:33.073Z,7.90
2022-08-12T22:03:17.867Z,7.90
2022-08-12T22:06:31.807Z,8.10
2022-08-12T22:09:11.260Z,7.20
2022-08-12T22:11:49.294Z,6.90
2022-08-12T22:14:24.282Z,8.10
2022-08-12T22:16:54.904Z,8.50
2022-08-12T22:19:23.381Z,8.00
2022-08-12T22:21:53.739Z,8.10
2022-08-12T22:24:26.536Z,8.20
2022-08-12T22:26:59.468Z,8.50
2022-08-12T22:32:26.304Z,7.50
2022-08-12T22:35:23.087Z,7.70
2022-08-12T22:37:56.046Z,7.50
2022-08-12T22:40:23.845Z,8.50
2022-08-12T22:43:06.345Z,8.50
2022-08-12T22:45:56.542Z,7.80
2022-08-12T22:48:26.560Z,8.30
2022-08-12T22:50:59.197Z,9.00
2022-08-12T22:53:36.238Z,8.60
2022-08-12T22:56:07.031Z,9.10
2022-08-12T22:58:41.256Z,9.40
2022-08-12T23:01:11.362Z,9.60
2022-08-12T23:03:50.929Z,9.90
2022-08-12T23:06:24.051Z,9.60
2022-08-12T23:08:54.599Z,9.50
2022-08-12T23:11:23.887Z,9.20
2022-08-12T23:13:57.178Z,9.60
2022-08-12T23:16:31.109Z,9.00
2022-08-12T23:19:09.755Z,8.60
2022-08-12T23:22:05.438Z,9.10
2022-08-12T23:24:39.095Z,9.60
2022-08-12T23:27:23.636Z,8.80
2022-08-12T23:30:17.496Z,9.60
2022-08-12T23:32:38.853Z,9.00
2022-08-12T23:35:07.212Z,9.20
2022-08-12T23:37:47.108Z,9.50
2022-08-12T23:40:22.078Z,9.40
2022-08-12T23:42:50.074Z,9.10
2022-08-12T23:45:20.559Z,9.80
2022-08-12T23:48:00.449Z,10.70
2022-08-12T23:50:33.466Z,10.30
2022-08-12T23:53:17.040Z,9.40
2022-08-12T23:55:49.915Z,9.30
2022-08-12T23:58:26.016Z,8.40
